createdAt,value
2017-11-03T00:01:07.924Z,8.03
2017-11-03T00:03:43.016Z,8.80
2017-11-03T00:06:17.915Z,9.30
2017-11-03T00:08:52.327Z,8.33
2017-11-03T00:11:26.855Z,9.70
2017-11-03T00:14:01.944Z,8.33
2017-11-03T00:16:37.023Z,8.00
2017-11-03T00:19:11.440Z,7.53
2017-11-03T00:21:46.007Z,7.93
2017-11-03T00:24:20.471Z,8.20
2017-11-03T00:26:55.463Z,9.20
2017-11-03T00:29:30.551Z,7.50
2017-11-03T00:32:05.631Z,9.27
2017-11-03T00:34:40.032Z,7.97
2017-11-03T00:37:14.827Z,9.37
2017-11-03T00:39:50.053Z,8.60
2017-11-03T00:42:25.152Z,8.60
2017-11-03T00:45:00.168Z,8.20
2017-11-03T00:47:35.324Z,9.07
2017-11-03T00:50:10.342Z,10.50
2017-11-03T00:52:45.860Z,8.70
2017-11-03T00:55:20.728Z,8.63
2017-11-03T00:57:55.740Z,9.33
2017-11-03T01:00:30.187Z,9.63
2017-11-03T01:03:05.504Z,9.27
2017-11-03T01:05:40.714Z,9.77
2017-11-03T01:08:15.675Z,11.70
2017-11-03T01:10:50.032Z,11.80
2017-11-03T01:13:25.447Z,14.20
2017-11-03T01:15:59.923Z,14.17
2017-11-03T01:18:34.813Z,10.20
2017-11-03T01:21:09.860Z,12.20
2017-11-03T01:23:45.107Z,13.07
2017-11-03T01:26:19.852Z,12.93
2017-11-03T01:28:54.984Z,13.63
2017-11-03T01:31:30.268Z,12.00
2017-11-03T01:34:05.625Z,12.13
2017-11-03T01:36:40.688Z,12.73
2017-11-03T01:39:15.897Z,12.13
2017-11-03T01:41:50.933Z,13.13
2017-11-03T01:44:26.035Z,14.27
2017-11-03T01:47:00.428Z,12.40
2017-11-03T01:49:35.920Z,14.50
2017-11-03T01:52:10.448Z,15.00
2017-11-03T01:54:45.908Z,14.80
2017-11-03T01:57:20.563Z,15.60
2017-11-03T01:59:55.292Z,15.73
2017-11-03T02:02:30.388Z,16.57
2017-11-03T02:05:05.125Z,15.50
2017-11-03T02:07:39.647Z,14.50
2017-11-03T02:10:14.879Z,16.13
2017-11-03T02:12:50.271Z,17.10
2017-11-03T02:15:24.702Z,15.57
2017-11-03T02:18:00.084Z,15.90
2017-11-03T02:20:35.052Z,15.73
2017-11-03T02:23:09.333Z,16.67
2017-11-03T02:25:43.818Z,17.93
2017-11-03T02:28:18.921Z,15.30
2017-11-03T02:30:53.731Z,16.10
2017-11-03T02:33:28.658Z,16.57
2017-11-03T02:36:04.004Z,15.97
2017-11-03T02:38:38.628Z,16.80
2017-11-03T02:41:12.796Z,17.20
2017-11-03T02:43:47.636Z,18.77
2017-11-03T02:46:23.036Z,17.30
2017-11-03T02:48:58.292Z,17.57
2017-11-03T02:51:33.655Z,16.77
2017-11-03T02:54:08.719Z,17.67
2017-11-03T02:56:43.719Z,17.13
2017-11-03T02:59:18.880Z,18.10
2017-11-03T03:01:53.796Z,16.17
2017-11-03T03:04:28.908Z,17.50
2017-11-03T03:07:04.237Z,17.50
2017-11-03T03:09:39.176Z,18.00
2017-11-03T03:12:14.328Z,17.07
2017-11-03T03:14:49.176Z,18.80
2017-11-03T03:17:23.607Z,18.40
2017-11-03T03:19:59.320Z,18.67
2017-11-03T03:22:33.973Z,18.30
2017-11-03T03:25:08.644Z,19.73
2017-11-03T03:27:42.990Z,18.30
2017-11-03T03:30:17.781Z,17.60
2017-11-03T03:32:52.636Z,19.13
2017-11-03T03:35:28.095Z,17.30
2017-11-03T03:38:02.866Z,19.10
2017-11-03T03:40:38.317Z,19.60
2017-11-03T03:43:12.672Z,17.73
2017-11-03T03:45:47.291Z,18.77
2017-11-03T03:48:21.924Z,17.97
2017-11-03T03:50:56.268Z,18.50
2017-11-03T03:53:30.463Z,18.23
2017-11-03T03:56:04.852Z,22.10
2017-11-03T03:58:40.080Z,18.70
2017-11-03T04:01:14.545Z,17.40
2017-11-03T04:03:50.119Z,20.40
2017-11-03T04:06:25.115Z,17.67
2017-11-03T04:08:59.991Z,22.30
2017-11-03T04:11:35.330Z,20.80
2017-11-03T04:14:10.444Z,18.40
2017-11-03T04:16:45.596Z,18.23
2017-11-03T04:19:20.460Z,20.00
2017-11-03T04:21:55.867Z,21.63
2017-11-03T04:24:31.204Z,19.63
2017-11-03T04:27:06.001Z,23.87
2017-11-03T04:29:40.668Z,24.47
2017-11-03T04:32:15.481Z,21.87
2017-11-03T04:34:49.618Z,19.80
2017-11-03T04:37:24.900Z,20.37
2017-11-03T04:39:59.716Z,17.60
2017-11-03T04:42:33.780Z,21.50
2017-11-03T04:45:09.103Z,19.30
2017-11-03T04:47:44.056Z,22.40
2017-11-03T04:50:18.616Z,19.00
2017-11-03T04:52:53.969Z,21.10
2017-11-03T04:55:28.746Z,19.77
2017-11-03T04:58:03.936Z,23.07
2017-11-03T05:00:39.409Z,19.67
2017-11-03T05:03:14.104Z,17.87
2017-11-03T05:05:49.147Z,18.73
2017-11-03T05:08:24.271Z,20.00
2017-11-03T05:10:59.672Z,17.20
2017-11-03T05:13:34.415Z,18.50
2017-11-03T05:16:09.680Z,16.40
2017-11-03T05:18:44.783Z,18.43
2017-11-03T05:21:19.884Z,16.00
2017-11-03T05:23:54.911Z,19.67
2017-11-03T05:26:30.044Z,17.30
2017-11-03T05:29:04.996Z,17.60
2017-11-03T05:31:39.511Z,17.33
2017-11-03T05:34:14.439Z,18.13
2017-11-03T05:36:49.111Z,16.50
2017-11-03T05:39:23.711Z,15.27
2017-11-03T05:41:58.404Z,15.50
2017-11-03T05:44:33.700Z,17.10
2017-11-03T05:47:08.181Z,15.43
2017-11-03T05:49:43.186Z,15.67
2017-11-03T05:52:18.215Z,14.57
2017-11-03T05:54:53.319Z,13.50
2017-11-03T05:57:28.036Z,14.47
2017-11-03T06:00:03.112Z,15.77
2017-11-03T06:02:37.865Z,15.60
2017-11-03T06:05:13.136Z,14.20
2017-11-03T06:07:48.271Z,16.57
2017-11-03T06:10:25.260Z,25.70
2017-11-03T06:13:00.872Z,19.70
2017-11-03T06:15:35.307Z,16.07
2017-11-03T06:18:10.024Z,17.03
2017-11-03T06:20:45.460Z,14.90
2017-11-03T06:23:20.338Z,13.80
2017-11-03T06:25:55.483Z,13.37
2017-11-03T06:28:30.069Z,12.70
2017-11-03T06:31:04.832Z,13.70
2017-11-03T06:33:40.171Z,14.20
2017-11-03T06:36:15.360Z,16.67
2017-11-03T06:38:49.595Z,14.10
2017-11-03T06:41:24.548Z,14.73
2017-11-03T06:43:58.868Z,14.90
2017-11-03T06:46:33.811Z,18.43
2017-11-03T06:49:07.916Z,14.40
2017-11-03T06:51:42.380Z,15.70
2017-11-03T06:54:17.152Z,14.27
2017-11-03T06:56:52.176Z,15.00
2017-11-03T06:59:26.444Z,14.27
2017-11-03T07:02:00.952Z,16.30
2017-11-03T07:04:36.336Z,15.20
2017-11-03T07:07:10.795Z,12.47
2017-11-03T07:09:45.287Z,16.30
2017-11-03T07:12:20.971Z,14.90
2017-11-03T07:14:55.379Z,13.03
2017-11-03T07:17:30.775Z,13.93
2017-11-03T07:20:05.543Z,13.70
2017-11-03T07:22:40.309Z,15.83
2017-11-03T07:25:15.240Z,13.33
2017-11-03T07:27:50.700Z,12.70
2017-11-03T07:30:25.963Z,12.50
2017-11-03T07:33:01.288Z,13.63
2017-11-03T07:35:35.981Z,12.07
2017-11-03T07:38:11.351Z,12.30
2017-11-03T07:40:45.949Z,11.60
2017-11-03T07:43:20.724Z,13.13
2017-11-03T07:45:55.264Z,12.20
2017-11-03T07:48:30.405Z,12.00
2017-11-03T07:51:04.879Z,12.37
2017-11-03T07:53:39.463Z,13.10
2017-11-03T07:56:14.748Z,14.50
2017-11-03T07:58:50.124Z,15.53
2017-11-03T08:01:24.839Z,16.10
2017-11-03T08:03:59.999Z,16.73
2017-11-03T08:06:34.521Z,13.70
2017-11-03T08:09:09.644Z,14.67
2017-11-03T08:11:44.786Z,13.50
2017-11-03T08:14:19.308Z,13.03
2017-11-03T08:16:53.828Z,11.77
2017-11-03T08:19:27.792Z,11.40
2017-11-03T08:22:03.072Z,12.83
2017-11-03T08:24:37.829Z,12.60
2017-11-03T08:27:13.143Z,12.90
2017-11-03T08:29:48.463Z,11.57
2017-11-03T08:32:23.785Z,13.53
2017-11-03T08:34:58.588Z,14.50
2017-11-03T08:37:33.274Z,13.17
2017-11-03T08:40:08.760Z,12.80
2017-11-03T08:42:43.968Z,14.23
2017-11-03T08:45:18.521Z,13.43
2017-11-03T08:47:53.392Z,14.93
2017-11-03T08:50:28.131Z,14.33
2017-11-03T08:53:02.512Z,12.83
2017-11-03T08:55:37.516Z,14.57
2017-11-03T08:58:13.228Z,13.90
2017-11-03T09:00:48.504Z,12.70
2017-11-03T09:03:23.271Z,13.70
2017-11-03T09:05:58.088Z,14.43
2017-11-03T09:08:33.429Z,13.43
2017-11-03T09:11:08.143Z,13.03
2017-11-03T09:13:43.379Z,13.53
2017-11-03T09:16:18.343Z,13.10
2017-11-03T09:18:53.043Z,13.20
2017-11-03T09:21:28.035Z,14.50
2017-11-03T09:24:02.916Z,14.60
2017-11-03T09:26:37.852Z,13.67
2017-11-03T09:29:12.900Z,13.80
2017-11-03T09:31:47.532Z,14.87
2017-11-03T09:34:22.585Z,12.50
2017-11-03T09:36:57.620Z,13.23
2017-11-03T09:39:31.699Z,14.43
2017-11-03T09:42:06.127Z,15.43
2017-11-03T09:44:40.294Z,14.43
2017-11-03T09:47:14.724Z,13.63
2017-11-03T09:49:49.036Z,13.90
2017-11-03T09:52:24.294Z,13.73
2017-11-03T09:54:59.299Z,13.23
2017-11-03T09:57:34.320Z,12.40
2017-11-03T10:00:09.640Z,13.60
2017-11-03T10:02:44.039Z,14.10
2017-11-03T10:05:18.847Z,13.13
2017-11-03T10:07:53.706Z,12.77
2017-11-03T10:10:28.215Z,12.60
2017-11-03T10:13:02.328Z,13.90
2017-11-03T10:15:37.416Z,12.53
2017-11-03T10:18:11.832Z,13.43
2017-11-03T10:20:46.583Z,12.90
2017-11-03T10:23:21.360Z,11.83
2017-11-03T10:25:55.946Z,12.37
2017-11-03T10:28:30.994Z,12.33
2017-11-03T10:31:06.808Z,12.20
2017-11-03T10:33:41.495Z,12.30
2017-11-03T10:36:15.904Z,11.57
2017-11-03T10:38:51.273Z,12.60
2017-11-03T10:41:25.995Z,12.83
2017-11-03T10:44:00.902Z,11.10
2017-11-03T10:46:35.001Z,12.33
2017-11-03T10:49:10.228Z,12.27
2017-11-03T10:51:44.920Z,11.73
2017-11-03T10:54:19.424Z,12.73
2017-11-03T10:56:53.964Z,12.27
2017-11-03T10:59:28.477Z,12.37
2017-11-03T11:02:02.824Z,11.20
2017-11-03T11:04:37.811Z,12.93
2017-11-03T11:07:12.516Z,12.73
2017-11-03T11:09:47.268Z,14.83
2017-11-03T11:12:22.661Z,14.60
2017-11-03T11:14:57.212Z,14.60
2017-11-03T11:17:32.600Z,13.50
2017-11-03T11:20:07.176Z,13.23
2017-11-03T11:22:42.571Z,18.20
2017-11-03T11:25:17.584Z,16.43
2017-11-03T11:27:52.736Z,17.40
2017-11-03T11:30:27.242Z,18.40
2017-11-03T11:33:02.056Z,18.30
2017-11-03T11:35:36.545Z,20.50
2017-11-03T11:38:11.025Z,19.73
2017-11-03T11:40:45.128Z,18.40
2017-11-03T11:43:19.896Z,19.37
2017-11-03T11:45:55.300Z,18.20
2017-11-03T11:48:30.249Z,19.37
2017-11-03T11:51:04.243Z,20.43
2017-11-03T11:53:39.028Z,20.50
2017-11-03T11:56:13.613Z,21.90
2017-11-03T11:58:48.474Z,22.50
2017-11-03T12:01:23.327Z,24.20
2017-11-03T12:03:58.192Z,23.90
2017-11-03T12:06:33.255Z,27.70
2017-11-03T12:09:07.413Z,22.83
2017-11-03T12:11:42.463Z,26.73
2017-11-03T12:14:17.443Z,28.70
2017-11-03T12:16:52.379Z,29.00
2017-11-03T12:19:27.656Z,29.27
2017-11-03T12:22:02.096Z,27.53
2017-11-03T12:24:37.024Z,30.83
2017-11-03T12:27:12.008Z,29.93
2017-11-03T12:29:47.116Z,30.90
2017-11-03T12:32:21.980Z,30.90
2017-11-03T12:34:57.032Z,30.20
2017-11-03T12:37:32.016Z,24.43
2017-11-03T12:40:06.920Z,27.90
2017-11-03T12:42:41.565Z,25.00
2017-11-03T12:45:16.324Z,26.90
2017-11-03T12:47:50.871Z,26.07
2017-11-03T12:50:24.979Z,25.40
2017-11-03T12:52:59.760Z,25.17
2017-11-03T12:55:34.736Z,24.37
2017-11-03T12:58:08.841Z,25.50
2017-11-03T13:00:43.893Z,24.53
2017-11-03T13:03:18.065Z,25.53
2017-11-03T13:05:52.488Z,24.07
2017-11-03T13:08:27.455Z,24.70
2017-11-03T13:11:01.562Z,25.60
2017-11-03T13:13:36.392Z,25.90
2017-11-03T13:16:11.534Z,26.97
2017-11-03T13:18:46.759Z,28.23
2017-11-03T13:21:21.179Z,27.00
2017-11-03T13:23:55.596Z,25.40
2017-11-03T13:26:29.736Z,26.50
2017-11-03T13:29:03.730Z,23.40
2017-11-03T13:31:38.138Z,23.37
2017-11-03T13:34:13.101Z,26.30
2017-11-03T13:36:47.405Z,25.17
2017-11-03T13:39:22.441Z,25.13
2017-11-03T13:41:57.195Z,23.83
2017-11-03T13:44:32.213Z,24.83
2017-11-03T13:47:07.056Z,25.93
2017-11-03T13:49:41.324Z,24.63
2017-11-03T13:52:16.192Z,26.27
2017-11-03T13:54:51.491Z,25.70
2017-11-03T13:57:25.563Z,26.60
2017-11-03T14:00:00.618Z,26.93
2017-11-03T14:02:35.649Z,27.53
2017-11-03T14:05:10.063Z,27.60
2017-11-03T14:07:45.597Z,27.87
2017-11-03T14:10:20.344Z,28.33
2017-11-03T14:12:55.279Z,27.60
2017-11-03T14:15:30.340Z,29.77
2017-11-03T14:18:05.764Z,28.57
2017-11-03T14:20:40.808Z,27.90
2017-11-03T14:23:16.079Z,29.83
2017-11-03T14:25:51.172Z,28.23
2017-11-03T14:28:26.083Z,28.80
2017-11-03T14:31:00.823Z,29.60
2017-11-03T14:33:35.956Z,29.17
2017-11-03T14:36:11.036Z,30.57
2017-11-03T14:38:46.227Z,29.20
2017-11-03T14:41:20.637Z,29.10
2017-11-03T14:43:55.627Z,28.63
2017-11-03T14:46:30.275Z,28.50
2017-11-03T14:49:05.280Z,29.50
2017-11-03T14:51:40.097Z,28.73
2017-11-03T14:54:14.936Z,29.57
2017-11-03T14:56:50.271Z,30.80
2017-11-03T14:59:25.284Z,29.57
2017-11-03T15:02:00.459Z,27.20
2017-11-03T15:04:34.945Z,25.80
2017-11-03T15:07:10.199Z,30.33
2017-11-03T15:09:45.600Z,31.43
2017-11-03T15:12:20.492Z,36.43
2017-11-03T15:14:55.416Z,36.90
2017-11-03T15:17:30.584Z,31.87
2017-11-03T15:20:05.265Z,30.50
2017-11-03T15:22:39.952Z,30.07
2017-11-03T15:25:14.775Z,28.97
2017-11-03T15:27:49.639Z,30.80
2017-11-03T15:30:23.959Z,34.17
2017-11-03T15:33:00.300Z,32.47
2017-11-03T15:35:34.902Z,30.47
2017-11-03T15:38:09.707Z,30.13
2017-11-03T15:40:44.289Z,29.30
2017-11-03T15:43:18.884Z,29.70
2017-11-03T15:45:54.032Z,26.20
2017-11-03T15:48:29.044Z,31.00
2017-11-03T15:51:03.644Z,27.87
2017-11-03T15:53:39.086Z,30.13
2017-11-03T15:56:14.636Z,28.17
2017-11-03T15:58:49.368Z,29.67
2017-11-03T16:01:24.291Z,29.10
2017-11-03T16:03:59.263Z,27.77
2017-11-03T16:06:34.672Z,27.40
2017-11-03T16:09:09.751Z,27.87
2017-11-03T16:11:44.331Z,28.90
2017-11-03T16:14:19.589Z,27.47
2017-11-03T16:16:54.845Z,30.20
2017-11-03T16:19:30.091Z,28.67
2017-11-03T16:22:04.708Z,30.70
2017-11-03T16:24:38.992Z,29.17
2017-11-03T16:27:14.271Z,28.27
2017-11-03T16:29:49.632Z,31.30
2017-11-03T16:32:24.955Z,27.57
2017-11-03T16:35:00.000Z,28.97
2017-11-03T16:37:35.265Z,30.60
2017-11-03T16:40:10.250Z,29.80
2017-11-03T16:42:45.271Z,28.67
2017-11-03T16:45:20.008Z,30.40
2017-11-03T16:47:54.292Z,31.63
2017-11-03T16:50:28.699Z,29.47
2017-11-03T16:53:03.191Z,29.97
2017-11-03T16:55:38.008Z,30.20
2017-11-03T16:58:13.237Z,29.07
2017-11-03T17:00:48.148Z,31.13
2017-11-03T17:03:23.379Z,29.50
2017-11-03T17:05:58.384Z,30.20
2017-11-03T17:08:33.188Z,31.60
2017-11-03T17:11:07.508Z,32.03
2017-11-03T17:13:41.975Z,73.17
2017-11-03T17:16:17.119Z,49.60
2017-11-03T17:18:52.293Z,36.87
2017-11-03T17:21:27.684Z,33.70
2017-11-03T17:24:02.595Z,29.57
2017-11-03T17:26:37.168Z,42.30
2017-11-03T17:29:12.038Z,39.23
2017-11-03T17:31:47.028Z,37.73
2017-11-03T17:34:22.051Z,30.23
2017-11-03T17:36:57.072Z,30.00
2017-11-03T17:39:32.415Z,30.00
2017-11-03T17:42:07.083Z,47.30
2017-11-03T17:44:41.407Z,30.00
2017-11-03T17:47:16.497Z,31.23
2017-11-03T17:49:52.124Z,30.60
2017-11-03T17:52:26.755Z,28.17
2017-11-03T17:55:01.636Z,28.87
2017-11-03T17:57:36.951Z,29.70
2017-11-03T18:00:11.743Z,28.33
2017-11-03T18:02:45.872Z,27.33
2017-11-03T18:05:20.496Z,28.43
2017-11-03T18:07:55.332Z,29.37
2017-11-03T18:10:30.055Z,29.40
2017-11-03T18:13:05.068Z,26.60
2017-11-03T18:15:39.476Z,26.77
2017-11-03T18:18:14.264Z,34.27
2017-11-03T18:20:49.686Z,31.40
2017-11-03T18:23:25.076Z,27.43
2017-11-03T18:26:00.228Z,31.43
2017-11-03T18:28:34.700Z,30.03
2017-11-03T18:31:09.153Z,30.10
2017-11-03T18:33:43.528Z,31.70
2017-11-03T18:36:18.071Z,29.63
2017-11-03T18:38:52.944Z,28.87
2017-11-03T18:41:28.060Z,27.53
2017-11-03T18:44:03.366Z,25.97
2017-11-03T18:46:38.627Z,27.17
2017-11-03T18:49:13.799Z,27.40
2017-11-03T18:51:48.550Z,26.80
2017-11-03T18:54:23.215Z,31.10
2017-11-03T18:56:58.175Z,40.00
2017-11-03T18:59:33.313Z,31.27
2017-11-03T19:02:18.143Z,26.97
2017-11-03T19:04:53.031Z,28.07
2017-11-03T19:07:27.670Z,26.43
2017-11-03T19:10:02.739Z,26.40
2017-11-03T19:12:37.528Z,26.30
2017-11-03T19:15:12.348Z,27.33
2017-11-03T19:17:47.566Z,28.07
2017-11-03T19:20:22.180Z,26.70
2017-11-03T19:22:57.119Z,26.73
2017-11-03T19:25:31.912Z,26.97
2017-11-03T19:28:07.392Z,27.60
2017-11-03T19:30:42.463Z,26.50
2017-11-03T19:33:17.631Z,26.50
2017-11-03T19:35:52.628Z,24.17
2017-11-03T19:38:27.577Z,29.40
2017-11-03T19:41:02.996Z,28.07
2017-11-03T19:43:38.361Z,26.73
2017-11-03T19:46:13.325Z,25.83
2017-11-03T19:48:48.440Z,24.57
2017-11-03T19:51:23.244Z,25.90
2017-11-03T19:53:58.558Z,27.30
2017-11-03T19:56:33.015Z,25.83
2017-11-03T19:59:08.276Z,26.93
2017-11-03T20:01:42.796Z,26.73
2017-11-03T20:04:17.616Z,23.97
2017-11-03T20:06:52.847Z,25.60
2017-11-03T20:09:27.951Z,25.43
2017-11-03T20:12:03.179Z,26.50
2017-11-03T20:14:37.992Z,26.37
2017-11-03T20:17:12.947Z,24.90
2017-11-03T20:19:47.508Z,24.93
2017-11-03T20:22:22.560Z,25.60
2017-11-03T20:24:57.540Z,25.07
2017-11-03T20:27:32.675Z,24.77
2017-11-03T20:30:07.931Z,26.83
2017-11-03T20:32:43.003Z,27.60
2017-11-03T20:35:18.245Z,23.87
2017-11-03T20:37:53.387Z,23.77
2017-11-03T20:40:28.048Z,25.37
2017-11-03T20:43:03.249Z,24.67
2017-11-03T20:45:38.579Z,25.30
2017-11-03T20:48:13.308Z,26.00
2017-11-03T20:50:48.564Z,25.87
2017-11-03T20:53:23.952Z,25.30
2017-11-03T20:55:58.939Z,23.10
2017-11-03T20:58:34.091Z,23.57
2017-11-03T21:01:09.176Z,25.43
2017-11-03T21:03:43.724Z,26.33
2017-11-03T21:06:18.900Z,27.10
2017-11-03T21:08:54.032Z,25.40
2017-11-03T21:11:28.879Z,24.57
2017-11-03T21:14:03.362Z,25.03
2017-11-03T21:16:38.695Z,25.13
2017-11-03T21:19:13.644Z,23.90
2017-11-03T21:21:48.779Z,24.33
2017-11-03T21:24:23.499Z,24.33
2017-11-03T21:26:58.352Z,25.67
2017-11-03T21:29:33.227Z,24.60
2017-11-03T21:32:08.089Z,23.70
2017-11-03T21:34:43.136Z,25.60
2017-11-03T21:37:17.580Z,23.83
2017-11-03T21:39:52.068Z,26.00
2017-11-03T21:42:27.129Z,25.33
2017-11-03T21:45:01.952Z,24.37
2017-11-03T21:47:36.664Z,24.80
2017-11-03T21:50:11.684Z,27.50
2017-11-03T21:52:46.763Z,26.13
2017-11-03T21:55:21.668Z,26.70
2017-11-03T21:57:56.820Z,25.53
2017-11-03T22:00:32.044Z,24.87
2017-11-03T22:03:06.578Z,23.80
2017-11-03T22:05:41.798Z,25.57
2017-11-03T22:08:17.036Z,25.40
2017-11-03T22:10:52.232Z,24.20
2017-11-03T22:13:27.268Z,25.27
2017-11-03T22:16:01.670Z,26.47
2017-11-03T22:18:36.873Z,25.60
2017-11-03T22:21:11.499Z,24.73
2017-11-03T22:23:46.225Z,26.73
2017-11-03T22:26:21.272Z,24.03
2017-11-03T22:28:55.787Z,27.10
2017-11-03T22:31:30.599Z,23.90
2017-11-03T22:34:04.644Z,27.37
2017-11-03T22:36:39.712Z,25.57
2017-11-03T22:39:14.723Z,27.20
2017-11-03T22:41:49.871Z,24.83
2017-11-03T22:44:25.212Z,25.80
2017-11-03T22:47:00.620Z,25.87
2017-11-03T22:49:36.075Z,25.67
2017-11-03T22:52:10.450Z,25.27
2017-11-03T22:54:45.567Z,26.03
2017-11-03T22:57:20.910Z,25.30
2017-11-03T22:59:56.032Z,24.57
2017-11-03T23:02:30.460Z,23.50
2017-11-03T23:05:05.868Z,24.20
2017-11-03T23:07:40.740Z,24.13
2017-11-03T23:10:16.068Z,25.37
2017-11-03T23:12:51.224Z,24.67
2017-11-03T23:15:25.924Z,24.70
2017-11-03T23:18:00.685Z,23.33
2017-11-03T23:20:35.556Z,26.73
2017-11-03T23:23:10.210Z,24.10
2017-11-03T23:25:45.366Z,25.20
2017-11-03T23:28:20.636Z,25.17
2017-11-03T23:30:55.056Z,24.13
2017-11-03T23:33:30.152Z,25.30
2017-11-03T23:36:04.875Z,24.80
2017-11-03T23:38:40.036Z,24.87
2017-11-03T23:41:14.936Z,25.60
2017-11-03T23:43:50.011Z,25.93
2017-11-03T23:46:24.988Z,24.90
2017-11-03T23:48:59.953Z,25.43
2017-11-03T23:51:34.775Z,26.00
2017-11-03T23:54:09.780Z,26.20
2017-11-03T23:56:44.535Z,23.90
2017-11-03T23:59:19.808Z,24.43
